Wetterdaten: aktuell Montag, 04.05.2026 14:30
Datum Zeit Temp. A. Feuchte A. Luftdruck Regen Wind Richtung Richtung Sonnenschein Solar Taupunkt Windchill Windböen
04.05.2026 14:30 24,7 °C 41 % 1010,3 hPa 0,0 l/m² 6,4 km/h S-SO 157 ° 5 min 592 W/m² 10,6 °C 24,7 °C 12,9 km/h
04.05.2026 14:25 24,7 °C 41 % 1010,3 hPa 0,0 l/m² 6,4 km/h SW 225 ° 5 min 640 W/m² 10,6 °C 24,7 °C 14,5 km/h
04.05.2026 14:20 24,6 °C 40 % 1010,3 hPa 0,0 l/m² 4,8 km/h W-SW 247 ° 5 min 677 W/m² 10,1 °C 24,6 °C 11,3 km/h
04.05.2026 14:15 24,4 °C 42 % 1010,5 hPa 0,0 l/m² 6,4 km/h S 180 ° 5 min 654 W/m² 10,6 °C 24,4 °C 11,3 km/h
04.05.2026 14:10 24,2 °C 41 % 1010,4 hPa 0,0 l/m² 3,2 km/h SW 225 ° 5 min 638 W/m² 10,1 °C 24,2 °C 8,0 km/h
04.05.2026 14:05 24,3 °C 41 % 1010,6 hPa 0,0 l/m² 6,4 km/h S-SW 202 ° 5 min 682 W/m² 10,2 °C 24,3 °C 14,5 km/h
04.05.2026 14:00 24,7 °C 40 % 1010,7 hPa 0,0 l/m² 3,2 km/h S-SW 202 ° 5 min 663 W/m² 10,2 °C 24,7 °C 11,3 km/h
04.05.2026 13:55 24,4 °C 41 % 1010,7 hPa 0,0 l/m² 4,8 km/h S-SW 202 ° 5 min 642 W/m² 10,3 °C 24,4 °C 11,3 km/h
04.05.2026 13:50 24,2 °C 40 % 1010,8 hPa 0,0 l/m² 8,0 km/h S-SO 157 ° 5 min 717 W/m² 9,7 °C 23,8 °C 14,5 km/h
04.05.2026 13:45 24,1 °C 42 % 1010,8 hPa 0,0 l/m² 9,7 km/h S 180 ° 5 min 708 W/m² 10,4 °C 23,2 °C 14,5 km/h
04.05.2026 13:40 24,3 °C 40 % 1011,0 hPa 0,0 l/m² 8,0 km/h S-SW 202 ° 5 min 722 W/m² 9,8 °C 23,9 °C 12,9 km/h
04.05.2026 13:35 24,2 °C 42 % 1011,1 hPa 0,0 l/m² 8,0 km/h SO 135 ° 5 min 740 W/m² 10,5 °C 23,8 °C 14,5 km/h
04.05.2026 13:30 24,2 °C 41 % 1011,1 hPa 0,0 l/m² 8,0 km/h S 180 ° 5 min 729 W/m² 10,1 °C 23,8 °C 16,1 km/h
04.05.2026 13:25 24,2 °C 42 % 1011,0 hPa 0,0 l/m² 8,0 km/h SW 225 ° 5 min 756 W/m² 10,5 °C 23,8 °C 16,1 km/h
04.05.2026 13:20 24,4 °C 41 % 1011,1 hPa 0,0 l/m² 6,4 km/h W-SW 247 ° 5 min 761 W/m² 10,3 °C 24,4 °C 12,9 km/h
04.05.2026 13:15 24,1 °C 40 % 1011,1 hPa 0,0 l/m² 8,0 km/h W-SW 247 ° 5 min 770 W/m² 9,6 °C 23,7 °C 17,7 km/h
04.05.2026 13:10 24,0 °C 41 % 1011,1 hPa 0,0 l/m² 4,8 km/h S 180 ° 5 min 717 W/m² 9,9 °C 24,0 °C 14,5 km/h
04.05.2026 13:05 23,7 °C 41 % 1011,1 hPa 0,0 l/m² 8,0 km/h S-SW 202 ° 5 min 694 W/m² 9,7 °C 23,2 °C 14,5 km/h
04.05.2026 13:00 23,8 °C 40 % 1011,2 hPa 0,0 l/m² 9,7 km/h S 180 ° 5 min 714 W/m² 9,4 °C 22,9 °C 16,1 km/h
04.05.2026 12:55 23,8 °C 41 % 1011,4 hPa 0,0 l/m² 8,0 km/h S 180 ° 5 min 749 W/m² 9,7 °C 23,3 °C 14,5 km/h
04.05.2026 12:50 23,7 °C 42 % 1011,4 hPa 0,0 l/m² 4,8 km/h S-SO 157 ° 5 min 701 W/m² 10,0 °C 23,7 °C 8,0 km/h
04.05.2026 12:45 23,0 °C 43 % 1011,5 hPa 0,0 l/m² 6,4 km/h SW 225 ° 5 min 649 W/m² 9,7 °C 23,0 °C 12,9 km/h
04.05.2026 12:40 23,0 °C 43 % 1011,7 hPa 0,0 l/m² 3,2 km/h S-SO 157 ° 0 min 446 W/m² 9,7 °C 23,0 °C 9,7 km/h
04.05.2026 12:35 23,6 °C 43 % 1011,8 hPa 0,0 l/m² 4,8 km/h S-SO 157 ° 5 min 693 W/m² 10,3 °C 23,6 °C 9,7 km/h
04.05.2026 12:30 23,4 °C 42 % 1011,8 hPa 0,0 l/m² 3,2 km/h S-SO 157 ° 5 min 698 W/m² 9,7 °C 23,4 °C 4,8 km/h
04.05.2026 12:25 23,1 °C 39 % 1011,8 hPa 0,0 l/m² 3,2 km/h W-SW 247 ° 5 min 729 W/m² 8,4 °C 23,1 °C 8,0 km/h
04.05.2026 12:20 23,3 °C 41 % 1011,8 hPa 0,0 l/m² 4,8 km/h W-SW 247 ° 5 min 680 W/m² 9,3 °C 23,3 °C 9,7 km/h
04.05.2026 12:15 23,4 °C 38 % 1011,9 hPa 0,0 l/m² 4,8 km/h W-NW 292 ° 5 min 663 W/m² 8,3 °C 23,4 °C 14,5 km/h
04.05.2026 12:10 23,1 °C 42 % 1011,9 hPa 0,0 l/m² 6,4 km/h W-SW 247 ° 5 min 668 W/m² 9,5 °C 23,1 °C 11,3 km/h
04.05.2026 12:05 23,2 °C 41 % 1012,1 hPa 0,0 l/m² 6,4 km/h W 270 ° 5 min 689 W/m² 9,2 °C 23,2 °C 12,9 km/h
04.05.2026 12:00 23,2 °C 40 % 1012,1 hPa 0,0 l/m² 6,4 km/h NO 45 ° 5 min 642 W/m² 8,8 °C 23,2 °C 16,1 km/h
04.05.2026 11:55 22,8 °C 39 % 1012,1 hPa 0,0 l/m² 4,8 km/h NO 45 ° 5 min 666 W/m² 8,1 °C 22,8 °C 12,9 km/h
04.05.2026 11:50 22,8 °C 39 % 1012,2 hPa 0,0 l/m² 8,0 km/h O-NO 67 ° 5 min 635 W/m² 8,1 °C 22,3 °C 12,9 km/h
04.05.2026 11:45 22,8 °C 39 % 1012,3 hPa 0,0 l/m² 8,0 km/h NW 315 ° 5 min 659 W/m² 8,1 °C 22,3 °C 22,5 km/h
04.05.2026 11:40 22,8 °C 40 % 1012,3 hPa 0,0 l/m² 4,8 km/h N-NO 22 ° 5 min 700 W/m² 8,5 °C 22,8 °C 11,3 km/h
04.05.2026 11:35 22,6 °C 41 % 1012,3 hPa 0,0 l/m² 4,8 km/h NW 315 ° 5 min 684 W/m² 8,7 °C 22,6 °C 12,9 km/h
04.05.2026 11:30 22,2 °C 42 % 1012,4 hPa 0,0 l/m² 6,4 km/h NO 45 ° 5 min 673 W/m² 8,7 °C 22,2 °C 14,5 km/h
04.05.2026 11:25 21,9 °C 41 % 1012,4 hPa 0,0 l/m² 6,4 km/h W-NW 292 ° 5 min 640 W/m² 8,0 °C 21,9 °C 12,9 km/h
04.05.2026 11:20 21,8 °C 41 % 1012,5 hPa 0,0 l/m² 6,4 km/h NW 315 ° 5 min 587 W/m² 8,0 °C 21,8 °C 11,3 km/h
04.05.2026 11:15 21,8 °C 39 % 1012,5 hPa 0,0 l/m² 6,4 km/h NW 315 ° 0 min 471 W/m² 7,2 °C 21,8 °C 14,5 km/h
04.05.2026 11:10 21,8 °C 42 % 1012,6 hPa 0,0 l/m² 6,4 km/h W-NW 292 ° 5 min 566 W/m² 8,3 °C 21,8 °C 12,9 km/h
04.05.2026 11:05 21,6 °C 41 % 1012,6 hPa 0,0 l/m² 8,0 km/h NW 315 ° 5 min 550 W/m² 7,8 °C 21,0 °C 14,5 km/h
04.05.2026 11:00 21,6 °C 42 % 1012,6 hPa 0,0 l/m² 6,4 km/h NW 315 ° 5 min 508 W/m² 8,1 °C 21,6 °C 12,9 km/h
04.05.2026 10:55 21,6 °C 41 % 1012,6 hPa 0,0 l/m² 8,0 km/h N 360 ° 5 min 524 W/m² 7,8 °C 21,0 °C 17,7 km/h
04.05.2026 10:50 21,7 °C 44 % 1012,6 hPa 0,0 l/m² 6,4 km/h NW 315 ° 5 min 548 W/m² 8,9 °C 21,7 °C 12,9 km/h
04.05.2026 10:45 21,8 °C 45 % 1012,6 hPa 0,0 l/m² 4,8 km/h N 360 ° 5 min 524 W/m² 9,3 °C 21,8 °C 9,7 km/h
04.05.2026 10:40 21,5 °C 43 % 1012,6 hPa 0,0 l/m² 6,4 km/h N-NO 22 ° 5 min 617 W/m² 8,4 °C 21,5 °C 16,1 km/h
04.05.2026 10:35 21,2 °C 45 % 1012,7 hPa 0,0 l/m² 4,8 km/h NW 315 ° 5 min 608 W/m² 8,8 °C 21,2 °C 9,7 km/h
04.05.2026 10:30 20,8 °C 46 % 1012,7 hPa 0,0 l/m² 6,4 km/h W-NW 292 ° 5 min 587 W/m² 8,8 °C 20,8 °C 12,9 km/h
04.05.2026 10:25 20,5 °C 46 % 1012,8 hPa 0,0 l/m² 9,7 km/h W-NW 292 ° 5 min 587 W/m² 8,5 °C 19,3 °C 16,1 km/h
04.05.2026 10:20 20,3 °C 47 % 1012,8 hPa 0,0 l/m² 11,3 km/h W 270 ° 5 min 587 W/m² 8,6 °C 18,6 °C 16,1 km/h
04.05.2026 10:15 20,5 °C 46 % 1012,8 hPa 0,0 l/m² 9,7 km/h W-NW 292 ° 5 min 566 W/m² 8,5 °C 19,3 °C 16,1 km/h
04.05.2026 10:10 20,3 °C 50 % 1012,8 hPa 0,0 l/m² 6,4 km/h W-NW 292 ° 5 min 534 W/m² 9,5 °C 20,3 °C 14,5 km/h
04.05.2026 10:05 19,9 °C 53 % 1012,8 hPa 0,0 l/m² 6,4 km/h W 270 ° 5 min 529 W/m² 10,0 °C 19,9 °C 12,9 km/h
04.05.2026 10:00 19,8 °C 55 % 1013,0 hPa 0,0 l/m² 4,8 km/h W-NW 292 ° 5 min 538 W/m² 10,5 °C 19,8 °C 12,9 km/h
04.05.2026 09:55 19,5 °C 54 % 1012,9 hPa 0,0 l/m² 4,8 km/h W-NW 292 ° 5 min 547 W/m² 9,9 °C 19,5 °C 11,3 km/h
04.05.2026 09:50 19,1 °C 58 % 1012,9 hPa 0,0 l/m² 3,2 km/h W-NW 292 ° 5 min 517 W/m² 10,6 °C 19,1 °C 6,4 km/h
04.05.2026 09:45 19,0 °C 56 % 1013,1 hPa 0,0 l/m² 3,2 km/h W 270 ° 5 min 432 W/m² 10,0 °C 19,0 °C 6,4 km/h
04.05.2026 09:40 19,1 °C 56 % 1012,9 hPa 0,0 l/m² 3,2 km/h NW 315 ° 0 min 364 W/m² 10,1 °C 19,1 °C 11,3 km/h
04.05.2026 09:35 18,9 °C 56 % 1012,9 hPa 0,0 l/m² 1,6 km/h W-NW 292 ° 0 min 359 W/m² 9,9 °C 18,9 °C 6,4 km/h
04.05.2026 09:30 18,7 °C 59 % 1013,0 hPa 0,0 l/m² 1,6 km/h W-NW 292 ° 0 min 346 W/m² 10,5 °C 18,7 °C 4,8 km/h
04.05.2026 09:25 18,6 °C 59 % 1013,0 hPa 0,0 l/m² 1,6 km/h W-NW 292 ° 5 min 454 W/m² 10,4 °C 18,6 °C 4,8 km/h
04.05.2026 09:20 18,3 °C 60 % 1013,0 hPa 0,0 l/m² 1,6 km/h W-NW 292 ° 5 min 552 W/m² 10,4 °C 18,3 °C 4,8 km/h
04.05.2026 09:15 17,9 °C 60 % 1012,9 hPa 0,0 l/m² 1,6 km/h W 270 ° 0 min 327 W/m² 10,0 °C 17,9 °C 4,8 km/h
04.05.2026 09:10 17,7 °C 62 % 1012,9 hPa 0,0 l/m² 1,6 km/h W 270 ° 0 min 297 W/m² 10,3 °C 17,7 °C 4,8 km/h
04.05.2026 09:05 17,4 °C 63 % 1012,9 hPa 0,0 l/m² 3,2 km/h W 270 ° 0 min 341 W/m² 10,3 °C 17,4 °C 6,4 km/h
04.05.2026 09:00 16,9 °C 65 % 1012,9 hPa 0,0 l/m² 3,2 km/h W 270 ° 0 min 279 W/m² 10,3 °C 16,9 °C 9,7 km/h
04.05.2026 08:55 16,8 °C 61 % 1012,9 hPa 0,0 l/m² 4,8 km/h W 270 ° 0 min 248 W/m² 9,2 °C 16,8 °C 9,7 km/h
04.05.2026 08:50 16,6 °C 60 % 1012,8 hPa 0,0 l/m² 4,8 km/h W-NW 292 ° 0 min 204 W/m² 8,8 °C 16,6 °C 9,7 km/h
04.05.2026 08:45 16,5 °C 62 % 1012,8 hPa 0,0 l/m² 4,8 km/h W 270 ° 0 min 193 W/m² 9,2 °C 16,5 °C 9,7 km/h
04.05.2026 08:40 16,4 °C 62 % 1012,8 hPa 0,0 l/m² 4,8 km/h W 270 ° 0 min 178 W/m² 9,1 °C 16,4 °C 9,7 km/h
04.05.2026 08:35 16,2 °C 61 % 1012,6 hPa 0,0 l/m² 3,2 km/h W 270 ° 0 min 158 W/m² 8,7 °C 16,2 °C 6,4 km/h
04.05.2026 08:30 16,1 °C 62 % 1012,6 hPa 0,0 l/m² 3,2 km/h W 270 ° 0 min 144 W/m² 8,8 °C 16,1 °C 9,7 km/h
04.05.2026 08:25 16,1 °C 64 % 1012,7 hPa 0,0 l/m² 3,2 km/h W-NW 292 ° 0 min 134 W/m² 9,3 °C 16,1 °C 4,8 km/h
04.05.2026 08:20 15,9 °C 63 % 1012,6 hPa 0,0 l/m² 3,2 km/h W-NW 292 ° 0 min 123 W/m² 8,9 °C 15,9 °C 8,0 km/h
04.05.2026 08:15 15,9 °C 62 % 1012,6 hPa 0,0 l/m² 4,8 km/h W-NW 292 ° 0 min 109 W/m² 8,6 °C 15,9 °C 9,7 km/h
04.05.2026 08:10 15,8 °C 63 % 1012,7 hPa 0,0 l/m² 4,8 km/h W 270 ° 0 min 95 W/m² 8,8 °C 15,8 °C 9,7 km/h
04.05.2026 08:05 15,9 °C 63 % 1012,6 hPa 0,0 l/m² 4,8 km/h W-NW 292 ° 0 min 84 W/m² 8,9 °C 15,9 °C 9,7 km/h
04.05.2026 08:00 15,9 °C 62 % 1012,5 hPa 0,0 l/m² 4,8 km/h W-NW 292 ° 0 min 76 W/m² 8,6 °C 15,9 °C 8,0 km/h
04.05.2026 07:55 15,9 °C 62 % 1012,4 hPa 0,0 l/m² 4,8 km/h W-NW 292 ° 0 min 72 W/m² 8,6 °C 15,9 °C 8,0 km/h
04.05.2026 07:50 15,9 °C 62 % 1012,4 hPa 0,0 l/m² 4,8 km/h NW 315 ° 0 min 70 W/m² 8,6 °C 15,9 °C 8,0 km/h
04.05.2026 07:45 15,9 °C 61 % 1012,3 hPa 0,0 l/m² 4,8 km/h NW 315 ° 0 min 67 W/m² 8,4 °C 15,9 °C 8,0 km/h
04.05.2026 07:40 15,9 °C 61 % 1012,4 hPa 0,0 l/m² 6,4 km/h W-NW 292 ° 0 min 63 W/m² 8,4 °C 15,9 °C 11,3 km/h
04.05.2026 07:35 15,9 °C 61 % 1012,4 hPa 0,0 l/m² 6,4 km/h NW 315 ° 0 min 72 W/m² 8,4 °C 15,9 °C 11,3 km/h
04.05.2026 07:30 15,8 °C 61 % 1012,5 hPa 0,0 l/m² 6,4 km/h W-NW 292 ° 5 min 186 W/m² 8,3 °C 15,8 °C 11,3 km/h
04.05.2026 07:25 15,6 °C 63 % 1012,6 hPa 0,0 l/m² 4,8 km/h W-NW 292 ° 5 min 179 W/m² 8,6 °C 15,6 °C 8,0 km/h
04.05.2026 07:20 15,6 °C 63 % 1012,6 hPa 0,0 l/m² 4,8 km/h W-NW 292 ° 0 min 81 W/m² 8,6 °C 15,6 °C 8,0 km/h
04.05.2026 07:15 15,5 °C 62 % 1012,6 hPa 0,0 l/m² 4,8 km/h NW 315 ° 0 min 84 W/m² 8,3 °C 15,5 °C 8,0 km/h
04.05.2026 07:10 15,5 °C 62 % 1012,5 hPa 0,0 l/m² 3,2 km/h NW 315 ° 0 min 84 W/m² 8,3 °C 15,5 °C 8,0 km/h
04.05.2026 07:05 15,5 °C 62 % 1012,5 hPa 0,0 l/m² 6,4 km/h NW 315 ° 0 min 69 W/m² 8,3 °C 15,5 °C 12,9 km/h
04.05.2026 07:00 15,5 °C 62 % 1012,4 hPa 0,0 l/m² 6,4 km/h N 360 ° 0 min 46 W/m² 8,3 °C 15,5 °C 12,9 km/h
04.05.2026 06:55 15,6 °C 62 % 1012,5 hPa 0,0 l/m² 4,8 km/h N-NW 337 ° 0 min 33 W/m² 8,3 °C 15,6 °C 12,9 km/h
04.05.2026 06:50 15,6 °C 62 % 1012,5 hPa 0,0 l/m² 6,4 km/h NW 315 ° 0 min 26 W/m² 8,3 °C 15,6 °C 12,9 km/h
04.05.2026 06:45 15,6 °C 61 % 1012,5 hPa 0,0 l/m² 9,7 km/h W-NW 292 ° 0 min 21 W/m² 8,1 °C 13,9 °C 16,1 km/h
04.05.2026 06:40 15,7 °C 61 % 1012,3 hPa 0,0 l/m² 8,0 km/h NW 315 ° 0 min 19 W/m² 8,2 °C 14,8 °C 14,5 km/h
04.05.2026 06:35 15,8 °C 60 % 1012,2 hPa 0,0 l/m² 9,7 km/h N-NO 22 ° 0 min 21 W/m² 8,1 °C 14,1 °C 20,9 km/h
04.05.2026 06:30 15,9 °C 60 % 1012,3 hPa 0,0 l/m² 6,4 km/h N-NO 22 ° 0 min 19 W/m² 8,1 °C 15,9 °C 14,5 km/h
04.05.2026 06:25 15,9 °C 59 % 1012,5 hPa 0,0 l/m² 8,0 km/h W-NW 292 ° 0 min 14 W/m² 7,9 °C 15,0 °C 19,3 km/h
04.05.2026 06:20 15,9 °C 59 % 1012,4 hPa 0,0 l/m² 6,4 km/h N-NO 22 ° 0 min 9 W/m² 7,9 °C 15,9 °C 12,9 km/h
04.05.2026 06:15 15,8 °C 59 % 1012,3 hPa 0,0 l/m² 8,0 km/h NW 315 ° 0 min 7 W/m² 7,8 °C 14,9 °C 19,3 km/h
04.05.2026 06:10 15,8 °C 59 % 1012,4 hPa 0,0 l/m² 3,2 km/h W-SW 247 ° 0 min 5 W/m² 7,8 °C 15,8 °C 12,9 km/h
04.05.2026 06:05 15,9 °C 59 % 1012,3 hPa 0,0 l/m² 3,2 km/h W-SW 247 ° 0 min 0 W/m² 7,9 °C 15,9 °C 8,0 km/h
04.05.2026 06:00 15,9 °C 61 % 1012,3 hPa 0,0 l/m² 3,2 km/h W-NW 292 ° 0 min 0 W/m² 8,4 °C 15,9 °C 6,4 km/h
04.05.2026 05:55 15,9 °C 59 % 1012,2 hPa 0,0 l/m² 4,8 km/h NW 315 ° 0 min 0 W/m² 7,9 °C 15,9 °C 11,3 km/h
04.05.2026 05:50 15,8 °C 60 % 1012,1 hPa 0,0 l/m² 11,3 km/h W-NW 292 ° 0 min 0 W/m² 8,1 °C 13,5 °C 17,7 km/h
04.05.2026 05:45 15,7 °C 60 % 1012,0 hPa 0,0 l/m² 9,7 km/h W 270 ° 0 min 0 W/m² 8,0 °C 14,0 °C 19,3 km/h
04.05.2026 05:40 15,6 °C 61 % 1011,9 hPa 0,0 l/m² 6,4 km/h N-NO 22 ° 0 min 0 W/m² 8,1 °C 15,6 °C 12,9 km/h
04.05.2026 05:35 15,5 °C 62 % 1011,7 hPa 0,0 l/m² 6,4 km/h N-NO 22 ° 0 min 0 W/m² 8,3 °C 15,5 °C 14,5 km/h
04.05.2026 05:30 15,4 °C 63 % 1011,7 hPa 0,0 l/m² 6,4 km/h N-NO 22 ° 0 min 0 W/m² 8,4 °C 15,4 °C 12,9 km/h
04.05.2026 05:25 15,5 °C 63 % 1011,7 hPa 0,0 l/m² 6,4 km/h N-NO 22 ° 0 min 0 W/m² 8,5 °C 15,5 °C 17,7 km/h
04.05.2026 05:20 15,6 °C 63 % 1011,9 hPa 0,0 l/m² 3,2 km/h N 360 ° 0 min 0 W/m² 8,6 °C 15,6 °C 6,4 km/h
04.05.2026 05:15 15,6 °C 63 % 1012,1 hPa 0,0 l/m² 3,2 km/h NW 315 ° 0 min 0 W/m² 8,6 °C 15,6 °C 8,0 km/h
04.05.2026 05:10 15,7 °C 63 % 1012,2 hPa 0,0 l/m² 3,2 km/h NW 315 ° 0 min 0 W/m² 8,7 °C 15,7 °C 9,7 km/h
04.05.2026 05:05 15,8 °C 62 % 1012,4 hPa 0,0 l/m² 1,6 km/h NW 315 ° 0 min 0 W/m² 8,5 °C 15,8 °C 3,2 km/h
04.05.2026 05:00 15,9 °C 62 % 1012,4 hPa 0,0 l/m² 3,2 km/h NW 315 ° 0 min 0 W/m² 8,6 °C 15,9 °C 4,8 km/h
04.05.2026 04:55 16,0 °C 62 % 1012,3 hPa 0,0 l/m² 3,2 km/h NW 315 ° 0 min 0 W/m² 8,7 °C 16,0 °C 6,4 km/h
04.05.2026 04:50 16,1 °C 61 % 1012,3 hPa 0,0 l/m² 4,8 km/h NW 315 ° 0 min 0 W/m² 8,6 °C 16,1 °C 11,3 km/h
04.05.2026 04:45 16,2 °C 61 % 1012,3 hPa 0,0 l/m² 3,2 km/h W-NW 292 ° 0 min 0 W/m² 8,7 °C 16,2 °C 4,8 km/h
04.05.2026 04:40 16,3 °C 61 % 1012,4 hPa 0,0 l/m² 3,2 km/h W-NW 292 ° 0 min 0 W/m² 8,8 °C 16,3 °C 6,4 km/h
04.05.2026 04:35 16,5 °C 60 % 1012,4 hPa 0,0 l/m² 3,2 km/h W 270 ° 0 min 0 W/m² 8,7 °C 16,5 °C 6,4 km/h
04.05.2026 04:30 16,6 °C 60 % 1012,5 hPa 0,0 l/m² 4,8 km/h W-NW 292 ° 0 min 0 W/m² 8,8 °C 16,6 °C 8,0 km/h
04.05.2026 04:25 16,7 °C 60 % 1012,5 hPa 0,0 l/m² 4,8 km/h W-NW 292 ° 0 min 0 W/m² 8,9 °C 16,7 °C 11,3 km/h
04.05.2026 04:20 16,8 °C 59 % 1012,5 hPa 0,0 l/m² 9,7 km/h W 270 ° 0 min 0 W/m² 8,7 °C 15,2 °C 16,1 km/h
04.05.2026 04:15 16,8 °C 59 % 1012,5 hPa 0,0 l/m² 8,0 km/h W 270 ° 0 min 0 W/m² 8,7 °C 16,0 °C 16,1 km/h
04.05.2026 04:10 16,9 °C 59 % 1012,6 hPa 0,0 l/m² 8,0 km/h W 270 ° 0 min 0 W/m² 8,8 °C 16,1 °C 16,1 km/h
04.05.2026 04:05 16,9 °C 58 % 1012,5 hPa 0,0 l/m² 6,4 km/h W 270 ° 0 min 0 W/m² 8,6 °C 16,9 °C 16,1 km/h
04.05.2026 04:00 17,0 °C 59 % 1012,5 hPa 0,0 l/m² 9,7 km/h W-SW 247 ° 0 min 0 W/m² 8,9 °C 15,4 °C 19,3 km/h
04.05.2026 03:55 17,0 °C 59 % 1012,3 hPa 0,0 l/m² 9,7 km/h W-SW 247 ° 0 min 0 W/m² 8,9 °C 15,4 °C 22,5 km/h
04.05.2026 03:50 16,9 °C 59 % 1012,2 hPa 0,0 l/m² 12,9 km/h W-SW 247 ° 0 min 0 W/m² 8,8 °C 14,2 °C 19,3 km/h
04.05.2026 03:45 16,8 °C 59 % 1012,0 hPa 0,0 l/m² 12,9 km/h W 270 ° 0 min 0 W/m² 8,7 °C 14,0 °C 20,9 km/h
04.05.2026 03:40 16,7 °C 60 % 1012,0 hPa 0,0 l/m² 6,4 km/h W-SW 247 ° 0 min 0 W/m² 8,9 °C 16,7 °C 12,9 km/h
04.05.2026 03:35 16,7 °C 60 % 1011,9 hPa 0,0 l/m² 4,8 km/h W-NW 292 ° 0 min 0 W/m² 8,9 °C 16,7 °C 11,3 km/h
04.05.2026 03:30 16,8 °C 60 % 1011,6 hPa 0,0 l/m² 4,8 km/h NW 315 ° 0 min 0 W/m² 9,0 °C 16,8 °C 12,9 km/h
04.05.2026 03:25 16,9 °C 60 % 1011,6 hPa 0,0 l/m² 6,4 km/h W-NW 292 ° 0 min 0 W/m² 9,1 °C 16,9 °C 11,3 km/h
04.05.2026 03:20 17,1 °C 59 % 1011,6 hPa 0,0 l/m² 3,2 km/h NW 315 ° 0 min 0 W/m² 9,0 °C 17,1 °C 8,0 km/h
04.05.2026 03:15 17,1 °C 59 % 1011,6 hPa 0,0 l/m² 3,2 km/h NW 315 ° 0 min 0 W/m² 9,0 °C 17,1 °C 6,4 km/h
04.05.2026 03:10 17,2 °C 58 % 1011,6 hPa 0,0 l/m² 3,2 km/h NW 315 ° 0 min 0 W/m² 8,9 °C 17,2 °C 6,4 km/h
04.05.2026 03:05 17,3 °C 58 % 1011,6 hPa 0,0 l/m² 3,2 km/h N 360 ° 0 min 0 W/m² 9,0 °C 17,3 °C 6,4 km/h
04.05.2026 03:00 17,3 °C 58 % 1011,6 hPa 0,0 l/m² 3,2 km/h N 360 ° 0 min 0 W/m² 9,0 °C 17,3 °C 6,4 km/h
04.05.2026 02:55 17,3 °C 58 % 1011,5 hPa 0,0 l/m² 4,8 km/h N-NO 22 ° 0 min 0 W/m² 9,0 °C 17,3 °C 8,0 km/h
04.05.2026 02:50 17,4 °C 58 % 1011,5 hPa 0,0 l/m² 6,4 km/h W-NW 292 ° 0 min 0 W/m² 9,1 °C 17,4 °C 12,9 km/h
04.05.2026 02:45 17,4 °C 57 % 1011,5 hPa 0,0 l/m² 6,4 km/h W-SW 247 ° 0 min 0 W/m² 8,8 °C 17,4 °C 12,9 km/h
04.05.2026 02:40 17,4 °C 57 % 1011,4 hPa 0,0 l/m² 6,4 km/h W 270 ° 0 min 0 W/m² 8,8 °C 17,4 °C 12,9 km/h
04.05.2026 02:35 17,6 °C 57 % 1011,4 hPa 0,0 l/m² 4,8 km/h W-NW 292 ° 0 min 0 W/m² 9,0 °C 17,6 °C 6,4 km/h
04.05.2026 02:30 17,7 °C 56 % 1011,3 hPa 0,0 l/m² 4,8 km/h W-NW 292 ° 0 min 0 W/m² 8,8 °C 17,7 °C 11,3 km/h
04.05.2026 02:25 17,8 °C 56 % 1011,2 hPa 0,0 l/m² 6,4 km/h NW 315 ° 0 min 0 W/m² 8,9 °C 17,8 °C 12,9 km/h
04.05.2026 02:20 17,9 °C 55 % 1011,1 hPa 0,0 l/m² 3,2 km/h N 360 ° 0 min 0 W/m² 8,7 °C 17,9 °C 6,4 km/h
04.05.2026 02:15 17,9 °C 55 % 1011,1 hPa 0,0 l/m² 3,2 km/h W-NW 292 ° 0 min 0 W/m² 8,7 °C 17,9 °C 4,8 km/h
04.05.2026 02:10 18,0 °C 55 % 1011,3 hPa 0,0 l/m² 4,8 km/h W-NW 292 ° 0 min 0 W/m² 8,8 °C 18,0 °C 11,3 km/h
04.05.2026 02:05 18,0 °C 55 % 1011,2 hPa 0,0 l/m² 9,7 km/h W-NW 292 ° 0 min 0 W/m² 8,8 °C 16,5 °C 16,1 km/h
04.05.2026 02:00 18,1 °C 55 % 1011,2 hPa 0,0 l/m² 9,7 km/h W-NW 292 ° 0 min 0 W/m² 8,9 °C 16,7 °C 16,1 km/h
04.05.2026 01:55 18,1 °C 54 % 1011,1 hPa 0,0 l/m² 8,0 km/h NW 315 ° 0 min 0 W/m² 8,6 °C 17,4 °C 14,5 km/h
04.05.2026 01:50 18,1 °C 54 % 1010,9 hPa 0,0 l/m² 9,7 km/h NW 315 ° 0 min 0 W/m² 8,6 °C 16,7 °C 16,1 km/h
04.05.2026 01:45 18,1 °C 54 % 1011,0 hPa 0,0 l/m² 11,3 km/h NW 315 ° 0 min 0 W/m² 8,6 °C 16,1 °C 19,3 km/h
04.05.2026 01:40 18,1 °C 54 % 1010,8 hPa 0,0 l/m² 9,7 km/h W-NW 292 ° 0 min 0 W/m² 8,6 °C 16,7 °C 17,7 km/h
04.05.2026 01:35 18,1 °C 54 % 1010,8 hPa 0,0 l/m² 8,0 km/h NW 315 ° 0 min 0 W/m² 8,6 °C 17,4 °C 17,7 km/h
04.05.2026 01:30 18,1 °C 54 % 1010,8 hPa 0,0 l/m² 9,7 km/h N 360 ° 0 min 0 W/m² 8,6 °C 16,7 °C 14,5 km/h
04.05.2026 01:25 18,1 °C 54 % 1010,7 hPa 0,0 l/m² 9,7 km/h N 360 ° 0 min 0 W/m² 8,6 °C 16,7 °C 16,1 km/h
04.05.2026 01:20 18,1 °C 54 % 1010,7 hPa 0,0 l/m² 8,0 km/h N 360 ° 0 min 0 W/m² 8,6 °C 17,4 °C 14,5 km/h
04.05.2026 01:15 18,2 °C 54 % 1010,7 hPa 0,0 l/m² 8,0 km/h N-NO 22 ° 0 min 0 W/m² 8,7 °C 17,5 °C 16,1 km/h
04.05.2026 01:10 18,3 °C 53 % 1010,8 hPa 0,0 l/m² 8,0 km/h N-NO 22 ° 0 min 0 W/m² 8,6 °C 17,6 °C 16,1 km/h
04.05.2026 01:05 18,4 °C 53 % 1010,9 hPa 0,0 l/m² 9,7 km/h N 360 ° 0 min 0 W/m² 8,6 °C 17,0 °C 16,1 km/h
04.05.2026 01:00 18,4 °C 53 % 1010,9 hPa 0,0 l/m² 9,7 km/h N-NO 22 ° 0 min 0 W/m² 8,6 °C 17,0 °C 17,7 km/h
04.05.2026 00:55 18,6 °C 53 % 1010,9 hPa 0,0 l/m² 9,7 km/h N 360 ° 0 min 0 W/m² 8,8 °C 17,2 °C 16,1 km/h
04.05.2026 00:50 18,6 °C 53 % 1010,9 hPa 0,0 l/m² 9,7 km/h N 360 ° 0 min 0 W/m² 8,8 °C 17,2 °C 16,1 km/h
04.05.2026 00:45 18,7 °C 52 % 1010,9 hPa 0,0 l/m² 9,7 km/h N 360 ° 0 min 0 W/m² 8,6 °C 17,3 °C 16,1 km/h
04.05.2026 00:40 18,7 °C 52 % 1010,9 hPa 0,0 l/m² 6,4 km/h NW 315 ° 0 min 0 W/m² 8,6 °C 18,7 °C 12,9 km/h
04.05.2026 00:35 18,8 °C 52 % 1010,9 hPa 0,0 l/m² 6,4 km/h NW 315 ° 0 min 0 W/m² 8,7 °C 18,8 °C 9,7 km/h
04.05.2026 00:30 18,9 °C 52 % 1010,8 hPa 0,0 l/m² 6,4 km/h NW 315 ° 0 min 0 W/m² 8,8 °C 18,9 °C 9,7 km/h
04.05.2026 00:25 18,9 °C 52 % 1010,8 hPa 0,0 l/m² 6,4 km/h NW 315 ° 0 min 0 W/m² 8,8 °C 18,9 °C 11,3 km/h
04.05.2026 00:20 19,1 °C 51 % 1010,9 hPa 0,0 l/m² 4,8 km/h NW 315 ° 0 min 0 W/m² 8,7 °C 19,1 °C 8,0 km/h
04.05.2026 00:15 19,2 °C 51 % 1010,7 hPa 0,0 l/m² 8,0 km/h NW 315 ° 0 min 0 W/m² 8,8 °C 18,5 °C 14,5 km/h
04.05.2026 00:10 19,2 °C 51 % 1010,7 hPa 0,0 l/m² 9,7 km/h W-NW 292 ° 0 min 0 W/m² 8,8 °C 17,9 °C 16,1 km/h
04.05.2026 00:05 19,3 °C 51 % 1010,7 hPa 0,0 l/m² 8,0 km/h W-NW 292 ° 0 min 0 W/m² 8,9 °C 18,6 °C 14,5 km/h
04.05.2026 00:00 19,5 °C 50 % 1010,7 hPa 0,0 l/m² 9,7 km/h NW 315 ° 0 min 0 W/m² 8,8 °C 18,2 °C 17,7 km/h
03.05.2026 23:55 19,6 °C 50 % 1010,4 hPa 0,0 l/m² 9,7 km/h NW 315 ° 0 min 0 W/m² 8,9 °C 18,3 °C 20,9 km/h
03.05.2026 23:50 19,6 °C 50 % 1010,3 hPa 0,0 l/m² 12,9 km/h N-NO 22 ° 0 min 0 W/m² 8,9 °C 17,3 °C 22,5 km/h
03.05.2026 23:45 19,7 °C 50 % 1010,3 hPa 0,0 l/m² 12,9 km/h N-NO 22 ° 0 min 0 W/m² 9,0 °C 17,4 °C 22,5 km/h
03.05.2026 23:40 19,7 °C 50 % 1010,3 hPa 0,0 l/m² 12,9 km/h N 360 ° 0 min 0 W/m² 9,0 °C 17,4 °C 30,6 km/h
03.05.2026 23:35 19,7 °C 50 % 1010,2 hPa 0,0 l/m² 14,5 km/h NW 315 ° 0 min 0 W/m² 9,0 °C 17,0 °C 30,6 km/h
03.05.2026 23:30 19,7 °C 50 % 1010,2 hPa 0,0 l/m² 16,1 km/h N 360 ° 0 min 0 W/m² 9,0 °C 16,6 °C 24,1 km/h
03.05.2026 23:25 19,8 °C 50 % 1010,1 hPa 0,0 l/m² 14,5 km/h NW 315 ° 0 min 0 W/m² 9,1 °C 17,1 °C 24,1 km/h
03.05.2026 23:20 19,8 °C 49 % 1010,1 hPa 0,0 l/m² 12,9 km/h NW 315 ° 0 min 0 W/m² 8,8 °C 17,5 °C 22,5 km/h
03.05.2026 23:15 19,9 °C 49 % 1010,1 hPa 0,0 l/m² 14,5 km/h NW 315 ° 0 min 0 W/m² 8,9 °C 17,3 °C 25,7 km/h
03.05.2026 23:10 19,9 °C 49 % 1010,1 hPa 0,0 l/m² 12,9 km/h NW 315 ° 0 min 0 W/m² 8,9 °C 17,7 °C 24,1 km/h
03.05.2026 23:05 20,0 °C 49 % 1009,9 hPa 0,0 l/m² 12,9 km/h NW 315 ° 0 min 0 W/m² 9,0 °C 17,8 °C 24,1 km/h
03.05.2026 23:00 19,9 °C 49 % 1009,8 hPa 0,0 l/m² 14,5 km/h NW 315 ° 0 min 0 W/m² 8,9 °C 17,3 °C 24,1 km/h
03.05.2026 22:55 19,8 °C 49 % 1009,8 hPa 0,0 l/m² 14,5 km/h NW 315 ° 0 min 0 W/m² 8,8 °C 17,1 °C 25,7 km/h
03.05.2026 22:50 19,7 °C 50 % 1009,8 hPa 0,0 l/m² 12,9 km/h NW 315 ° 0 min 0 W/m² 9,0 °C 17,4 °C 22,5 km/h
03.05.2026 22:45 19,3 °C 50 % 1009,8 hPa 0,0 l/m² 14,5 km/h N 360 ° 0 min 0 W/m² 8,6 °C 16,5 °C 22,5 km/h
03.05.2026 22:40 18,6 °C 52 % 1009,8 hPa 0,0 l/m² 11,3 km/h N-NO 22 ° 0 min 0 W/m² 8,5 °C 16,6 °C 22,5 km/h
03.05.2026 22:35 17,8 °C 53 % 1009,7 hPa 0,0 l/m² 9,7 km/h N-NO 22 ° 0 min 0 W/m² 8,1 °C 16,3 °C 17,7 km/h
03.05.2026 22:30 17,1 °C 54 % 1009,7 hPa 0,0 l/m² 8,0 km/h N-NO 22 ° 0 min 0 W/m² 7,7 °C 16,3 °C 19,3 km/h
03.05.2026 22:25 16,8 °C 55 % 1009,8 hPa 0,0 l/m² 6,4 km/h N-NO 22 ° 0 min 0 W/m² 7,7 °C 16,8 °C 17,7 km/h
03.05.2026 22:20 16,9 °C 55 % 1009,8 hPa 0,0 l/m² 4,8 km/h N-NO 22 ° 0 min 0 W/m² 7,8 °C 16,9 °C 8,0 km/h
03.05.2026 22:15 17,1 °C 55 % 1009,8 hPa 0,0 l/m² 3,2 km/h NO 45 ° 0 min 0 W/m² 8,0 °C 17,1 °C 8,0 km/h
03.05.2026 22:10 17,3 °C 56 % 1009,9 hPa 0,0 l/m² 3,2 km/h NO 45 ° 0 min 0 W/m² 8,4 °C 17,3 °C 4,8 km/h
03.05.2026 22:05 17,5 °C 55 % 1009,9 hPa 0,0 l/m² 3,2 km/h NO 45 ° 0 min 0 W/m² 8,4 °C 17,5 °C 4,8 km/h
03.05.2026 22:00 17,6 °C 54 % 1009,9 hPa 0,0 l/m² 4,8 km/h NO 45 ° 0 min 0 W/m² 8,2 °C 17,6 °C 6,4 km/h
03.05.2026 21:55 17,8 °C 53 % 1009,9 hPa 0,0 l/m² 4,8 km/h NO 45 ° 0 min 0 W/m² 8,1 °C 17,8 °C 6,4 km/h
03.05.2026 21:50 18,0 °C 52 % 1009,9 hPa 0,0 l/m² 3,2 km/h NO 45 ° 0 min 0 W/m² 8,0 °C 18,0 °C 6,4 km/h
03.05.2026 21:45 18,2 °C 52 % 1009,9 hPa 0,0 l/m² 3,2 km/h NO 45 ° 0 min 0 W/m² 8,2 °C 18,2 °C 6,4 km/h
03.05.2026 21:40 18,4 °C 53 % 1009,7 hPa 0,0 l/m² 3,2 km/h NO 45 ° 0 min 0 W/m² 8,6 °C 18,4 °C 4,8 km/h
03.05.2026 21:35 18,6 °C 53 % 1009,7 hPa 0,0 l/m² 3,2 km/h NO 45 ° 0 min 0 W/m² 8,8 °C 18,6 °C 6,4 km/h
03.05.2026 21:30 18,9 °C 52 % 1009,8 hPa 0,0 l/m² 3,2 km/h NO 45 ° 0 min 0 W/m² 8,8 °C 18,9 °C 4,8 km/h
03.05.2026 21:25 19,2 °C 51 % 1009,8 hPa 0,0 l/m² 3,2 km/h NO 45 ° 0 min 0 W/m² 8,8 °C 19,2 °C 6,4 km/h
03.05.2026 21:20 19,5 °C 51 % 1009,7 hPa 0,0 l/m² 3,2 km/h NO 45 ° 0 min 0 W/m² 9,1 °C 19,5 °C 6,4 km/h
03.05.2026 21:15 19,7 °C 50 % 1009,7 hPa 0,0 l/m² 3,2 km/h NO 45 ° 0 min 0 W/m² 9,0 °C 19,7 °C 4,8 km/h
03.05.2026 21:10 19,9 °C 50 % 1009,7 hPa 0,0 l/m² 1,6 km/h NO 45 ° 0 min 0 W/m² 9,2 °C 19,9 °C 4,8 km/h
03.05.2026 21:05 20,2 °C 50 % 1009,6 hPa 0,0 l/m² 3,2 km/h NO 45 ° 0 min 0 W/m² 9,4 °C 20,2 °C 4,8 km/h
03.05.2026 21:00 20,3 °C 49 % 1009,6 hPa 0,0 l/m² 3,2 km/h NO 45 ° 0 min 0 W/m² 9,2 °C 20,3 °C 6,4 km/h
03.05.2026 20:55 20,5 °C 47 % 1009,7 hPa 0,0 l/m² 1,6 km/h NO 45 ° 0 min 0 W/m² 8,8 °C 20,5 °C 4,8 km/h
03.05.2026 20:50 20,7 °C 47 % 1009,4 hPa 0,0 l/m² 3,2 km/h NO 45 ° 0 min 0 W/m² 9,0 °C 20,7 °C 6,4 km/h
03.05.2026 20:45 20,9 °C 47 % 1009,4 hPa 0,0 l/m² 3,2 km/h NO 45 ° 0 min 0 W/m² 9,2 °C 20,9 °C 6,4 km/h
03.05.2026 20:40 21,1 °C 47 % 1009,4 hPa 0,0 l/m² 3,2 km/h NO 45 ° 0 min 0 W/m² 9,3 °C 21,1 °C 4,8 km/h
03.05.2026 20:35 21,3 °C 47 % 1009,4 hPa 0,0 l/m² 4,8 km/h NO 45 ° 0 min 0 W/m² 9,5 °C 21,3 °C 6,4 km/h
03.05.2026 20:30 21,6 °C 47 % 1009,4 hPa 0,0 l/m² 3,2 km/h N-NO 22 ° 0 min 0 W/m² 9,8 °C 21,6 °C 8,0 km/h
03.05.2026 20:25 21,8 °C 47 % 1009,4 hPa 0,0 l/m² 3,2 km/h N-NO 22 ° 0 min 5 W/m² 10,0 °C 21,8 °C 4,8 km/h
03.05.2026 20:20 22,0 °C 46 % 1009,2 hPa 0,0 l/m² 1,6 km/h N-NO 22 ° 0 min 7 W/m² 9,8 °C 22,0 °C 4,8 km/h
03.05.2026 20:15 22,2 °C 46 % 1009,3 hPa 0,0 l/m² 1,6 km/h N-NO 22 ° 0 min 11 W/m² 10,0 °C 22,2 °C 4,8 km/h
03.05.2026 20:10 22,4 °C 45 % 1009,3 hPa 0,0 l/m² 4,8 km/h N-NO 22 ° 0 min 14 W/m² 9,9 °C 22,4 °C 6,4 km/h
03.05.2026 20:05 22,6 °C 44 % 1009,3 hPa 0,0 l/m² 3,2 km/h N-NO 22 ° 0 min 18 W/m² 9,7 °C 22,6 °C 6,4 km/h
03.05.2026 20:00 22,8 °C 44 % 1009,3 hPa 0,0 l/m² 3,2 km/h N-NO 22 ° 0 min 21 W/m² 9,9 °C 22,8 °C 6,4 km/h
03.05.2026 19:55 23,0 °C 43 % 1009,3 hPa 0,0 l/m² 3,2 km/h N-NO 22 ° 0 min 25 W/m² 9,7 °C 23,0 °C 6,4 km/h
03.05.2026 19:50 23,1 °C 42 % 1009,3 hPa 0,0 l/m² 3,2 km/h N-NO 22 ° 0 min 30 W/m² 9,5 °C 23,1 °C 6,4 km/h
03.05.2026 19:45 23,2 °C 42 % 1009,3 hPa 0,0 l/m² 3,2 km/h N-NO 22 ° 0 min 37 W/m² 9,6 °C 23,2 °C 4,8 km/h
03.05.2026 19:40 23,2 °C 42 % 1009,4 hPa 0,0 l/m² 3,2 km/h N-NO 22 ° 0 min 42 W/m² 9,6 °C 23,2 °C 6,4 km/h
03.05.2026 19:35 23,3 °C 41 % 1009,3 hPa 0,0 l/m² 3,2 km/h N-NO 22 ° 0 min 47 W/m² 9,3 °C 23,3 °C 6,4 km/h
03.05.2026 19:30 23,3 °C 41 % 1009,3 hPa 0,0 l/m² 1,6 km/h O-SO 112 ° 0 min 54 W/m² 9,3 °C 23,3 °C 6,4 km/h
03.05.2026 19:25 23,5 °C 41 % 1009,4 hPa 0,0 l/m² 1,6 km/h O-SO 112 ° 0 min 60 W/m² 9,5 °C 23,5 °C 3,2 km/h
03.05.2026 19:20 23,8 °C 41 % 1009,3 hPa 0,0 l/m² 1,6 km/h O-SO 112 ° 0 min 63 W/m² 9,7 °C 23,8 °C 4,8 km/h
03.05.2026 19:15 24,1 °C 38 % 1009,3 hPa 0,0 l/m² 1,6 km/h O-SO 112 ° 0 min 69 W/m² 8,9 °C 24,1 °C 3,2 km/h
03.05.2026 19:10 24,3 °C 37 % 1009,3 hPa 0,0 l/m² 1,6 km/h O-SO 112 ° 0 min 69 W/m² 8,7 °C 24,3 °C 3,2 km/h
03.05.2026 19:05 24,4 °C 36 % 1009,4 hPa 0,0 l/m² 1,6 km/h O-SO 112 ° 0 min 77 W/m² 8,4 °C 24,4 °C 3,2 km/h
03.05.2026 19:00 24,4 °C 34 % 1009,3 hPa 0,0 l/m² 0,0 km/h SO 135 ° 0 min 83 W/m² 7,5 °C 24,4 °C 1,6 km/h
03.05.2026 18:55 24,6 °C 32 % 1009,3 hPa 0,0 l/m² 0,0 km/h SO 135 ° 0 min 81 W/m² 6,8 °C 24,6 °C 3,2 km/h
03.05.2026 18:50 25,0 °C 32 % 1009,3 hPa 0,0 l/m² 0,0 km/h SO 135 ° 0 min 84 W/m² 7,1 °C 25,0 °C 1,6 km/h
03.05.2026 18:45 25,1 °C 30 % 1009,4 hPa 0,0 l/m² 1,6 km/h SO 135 ° 0 min 84 W/m² 6,3 °C 25,1 °C 3,2 km/h
03.05.2026 18:40 25,1 °C 31 % 1009,2 hPa 0,0 l/m² 1,6 km/h SO 135 ° 0 min 86 W/m² 6,8 °C 25,1 °C 4,8 km/h
03.05.2026 18:35 25,1 °C 31 % 1009,3 hPa 0,0 l/m² 1,6 km/h SO 135 ° 0 min 91 W/m² 6,8 °C 25,1 °C 4,8 km/h
03.05.2026 18:30 25,1 °C 31 % 1009,3 hPa 0,0 l/m² 3,2 km/h SO 135 ° 0 min 114 W/m² 6,8 °C 25,1 °C 6,4 km/h
03.05.2026 18:25 25,4 °C 33 % 1009,4 hPa 0,0 l/m² 1,6 km/h SO 135 ° 0 min 125 W/m² 7,9 °C 25,4 °C 6,4 km/h
03.05.2026 18:20 25,4 °C 32 % 1009,4 hPa 0,0 l/m² 3,2 km/h SO 135 ° 0 min 153 W/m² 7,5 °C 25,4 °C 6,4 km/h
03.05.2026 18:15 25,4 °C 34 % 1009,5 hPa 0,0 l/m² 4,8 km/h SO 135 ° 0 min 160 W/m² 8,4 °C 25,4 °C 6,4 km/h
03.05.2026 18:10 25,6 °C 33 % 1009,4 hPa 0,0 l/m² 3,2 km/h S-SO 157 ° 0 min 134 W/m² 8,1 °C 25,6 °C 6,4 km/h
03.05.2026 18:05 25,9 °C 32 % 1009,5 hPa 0,0 l/m² 6,4 km/h S-SO 157 ° 0 min 172 W/m² 7,9 °C 25,9 °C 11,3 km/h
03.05.2026 18:00 26,1 °C 32 % 1009,5 hPa 0,0 l/m² 4,8 km/h SO 135 ° 0 min 186 W/m² 8,1 °C 26,1 °C 11,3 km/h
03.05.2026 17:55 25,9 °C 32 % 1009,5 hPa 0,0 l/m² 4,8 km/h SO 135 ° 0 min 183 W/m² 7,9 °C 25,9 °C 8,0 km/h
03.05.2026 17:50 25,8 °C 33 % 1009,5 hPa 0,0 l/m² 4,8 km/h SO 135 ° 0 min 172 W/m² 8,3 °C 25,8 °C 8,0 km/h
03.05.2026 17:45 25,9 °C 31 % 1009,4 hPa 0,0 l/m² 4,8 km/h SO 135 ° 0 min 186 W/m² 7,5 °C 25,9 °C 12,9 km/h
03.05.2026 17:40 26,2 °C 32 % 1009,5 hPa 0,0 l/m² 6,4 km/h O-SO 112 ° 0 min 262 W/m² 8,2 °C 26,2 °C 12,9 km/h
03.05.2026 17:35 26,2 °C 35 % 1009,5 hPa 0,0 l/m² 6,4 km/h O-SO 112 ° 0 min 276 W/m² 9,5 °C 26,2 °C 12,9 km/h
03.05.2026 17:30 26,2 °C 34 % 1009,5 hPa 0,0 l/m² 6,4 km/h O 90 ° 0 min 264 W/m² 9,1 °C 26,2 °C 14,5 km/h
03.05.2026 17:25 26,3 °C 32 % 1009,7 hPa 0,0 l/m² 4,8 km/h S-SO 157 ° 0 min 294 W/m² 8,3 °C 26,3 °C 14,5 km/h
03.05.2026 17:20 26,4 °C 31 % 1009,7 hPa 0,0 l/m² 6,4 km/h S-SO 157 ° 5 min 359 W/m² 7,9 °C 26,4 °C 11,3 km/h
03.05.2026 17:15 26,7 °C 34 % 1009,8 hPa 0,0 l/m² 6,4 km/h SO 135 ° 5 min 359 W/m² 9,5 °C 26,7 °C 14,5 km/h
03.05.2026 17:10 26,8 °C 33 % 1009,9 hPa 0,0 l/m² 6,4 km/h SO 135 ° 5 min 406 W/m² 9,2 °C 26,8 °C 17,7 km/h
03.05.2026 17:05 26,7 °C 34 % 1009,9 hPa 0,0 l/m² 6,4 km/h SO 135 ° 5 min 352 W/m² 9,5 °C 26,7 °C 16,1 km/h
03.05.2026 17:00 26,9 °C 32 % 1009,9 hPa 0,0 l/m² 11,3 km/h O-SO 112 ° 5 min 438 W/m² 8,8 °C 26,1 °C 17,7 km/h
03.05.2026 16:55 26,9 °C 35 % 1009,9 hPa 0,0 l/m² 8,0 km/h O-SO 112 ° 5 min 461 W/m² 10,1 °C 26,6 °C 14,5 km/h
03.05.2026 16:50 26,8 °C 34 % 1009,9 hPa 0,0 l/m² 6,4 km/h S-SO 157 ° 5 min 432 W/m² 9,6 °C 26,8 °C 14,5 km/h
03.05.2026 16:45 26,8 °C 34 % 1010,0 hPa 0,0 l/m² 4,8 km/h O-SO 112 ° 5 min 466 W/m² 9,6 °C 26,8 °C 12,9 km/h
03.05.2026 16:40 26,7 °C 33 % 1010,0 hPa 0,0 l/m² 4,8 km/h SO 135 ° 5 min 466 W/m² 9,1 °C 26,7 °C 8,0 km/h
03.05.2026 16:35 26,9 °C 34 % 1010,0 hPa 0,0 l/m² 6,4 km/h SO 135 ° 5 min 492 W/m² 9,7 °C 26,9 °C 14,5 km/h
03.05.2026 16:30 26,6 °C 35 % 1010,1 hPa 0,0 l/m² 8,0 km/h SO 135 ° 5 min 494 W/m² 9,9 °C 26,3 °C 14,5 km/h
03.05.2026 16:25 26,3 °C 32 % 1010,1 hPa 0,0 l/m² 6,4 km/h S-SO 157 ° 5 min 480 W/m² 8,3 °C 26,3 °C 14,5 km/h
03.05.2026 16:20 26,6 °C 32 % 1010,2 hPa 0,0 l/m² 8,0 km/h SO 135 ° 5 min 473 W/m² 8,5 °C 26,3 °C 17,7 km/h
03.05.2026 16:15 27,0 °C 34 % 1010,2 hPa 0,0 l/m² 6,4 km/h SO 135 ° 5 min 541 W/m² 9,8 °C 27,0 °C 14,5 km/h
03.05.2026 16:10 27,4 °C 34 % 1010,3 hPa 0,0 l/m² 6,4 km/h SO 135 ° 5 min 563 W/m² 10,1 °C 27,4 °C 16,1 km/h
03.05.2026 16:05 27,1 °C 34 % 1010,3 hPa 0,0 l/m² 8,0 km/h SO 135 ° 5 min 561 W/m² 9,9 °C 26,8 °C 12,9 km/h
03.05.2026 16:00 27,1 °C 33 % 1010,3 hPa 0,0 l/m² 6,4 km/h O-SO 112 ° 5 min 566 W/m² 9,4 °C 27,1 °C 14,5 km/h
03.05.2026 15:55 26,9 °C 33 % 1010,5 hPa 0,0 l/m² 6,4 km/h SO 135 ° 5 min 582 W/m² 9,3 °C 26,9 °C 17,7 km/h
03.05.2026 15:50 26,7 °C 33 % 1010,5 hPa 0,0 l/m² 8,0 km/h SO 135 ° 5 min 591 W/m² 9,1 °C 26,4 °C 14,5 km/h
03.05.2026 15:45 27,1 °C 31 % 1010,7 hPa 0,0 l/m² 8,0 km/h O-SO 112 ° 5 min 596 W/m² 8,5 °C 26,8 °C 16,1 km/h
03.05.2026 15:40 26,9 °C 33 % 1010,7 hPa 0,0 l/m² 4,8 km/h S-SO 157 ° 5 min 613 W/m² 9,3 °C 26,9 °C 16,1 km/h
03.05.2026 15:35 26,6 °C 35 % 1010,8 hPa 0,0 l/m² 8,0 km/h S 180 ° 5 min 613 W/m² 9,9 °C 26,3 °C 16,1 km/h
03.05.2026 15:30 26,5 °C 35 % 1010,8 hPa 0,0 l/m² 9,7 km/h S-SO 157 ° 5 min 615 W/m² 9,8 °C 25,9 °C 22,5 km/h
03.05.2026 15:25 26,7 °C 36 % 1010,9 hPa 0,0 l/m² 8,0 km/h SO 135 ° 5 min 599 W/m² 10,4 °C 26,4 °C 17,7 km/h
03.05.2026 15:20 26,4 °C 33 % 1011,0 hPa 0,0 l/m² 8,0 km/h S-SO 157 ° 5 min 608 W/m² 8,8 °C 26,1 °C 19,3 km/h
03.05.2026 15:15 26,4 °C 36 % 1011,1 hPa 0,0 l/m² 9,7 km/h SO 135 ° 5 min 601 W/m² 10,1 °C 25,8 °C 17,7 km/h
03.05.2026 15:10 26,5 °C 36 % 1011,2 hPa 0,0 l/m² 9,7 km/h SO 135 ° 5 min 629 W/m² 10,2 °C 25,9 °C 16,1 km/h
03.05.2026 15:05 26,3 °C 35 % 1011,3 hPa 0,0 l/m² 8,0 km/h S-SO 157 ° 5 min 645 W/m² 9,6 °C 26,0 °C 16,1 km/h
03.05.2026 15:00 26,4 °C 34 % 1011,3 hPa 0,0 l/m² 9,7 km/h S-SO 157 ° 5 min 635 W/m² 9,3 °C 25,8 °C 17,7 km/h
_ Min-Zeit 05:30 18:45 18:40 - 18:50 - - - - 18:45 05:50 18:50
Minimum _ 15,4 °C 30 % 1009,2 hPa - 0,0 km/h - - - - 6,3 °C 13,5 °C 1,6 km/h
_ Max-Zeit 16:10 09:00 09:45 15:00 23:30 - - 15:00 13:15 14:15 16:10 23:35
Maximum _ 27,4 °C 65 % 1013,1 hPa 0,0 l/m² 16,1 km/h
N
- - 5 min 770 W/m² 10,6 °C 27,4 °C 30,6 km/h
N-NW
Durchschnitt _ 20,9 °C 48 % 1011,1 hPa #0,0 l/m² 6,3 km/h NW - #5:00 h 427 W/m² 8,9 °C 20,5 °C 12,4 km/h